Tiptonville, TN

2:41 AM CDT on August 31, 2014 (GMT -0500)
KTNUNION3 | Change Station
CLOSE
Current Station
Personal Weather Station
Location: Union City, TN
Elevation: 360 ft
Nearby Weather Stations

Elev 360 ft 36.41 °N, 89.05 °W | Updated 1 minute ago

Mostly Cloudy
Mostly Cloudy
71.9 °F
Feels Like 71.9 °F
N
0.0
Wind Variable Wind from South
Gusts 4.0 mph

Today
High -- | Low -- °F
--% Chance of Precip.
Yesterday
High -- | Low -- °F
Precip. -- in
6:28 AM 7:27 PM
Waxing Crescent, 28% visible
Pressure 30.00 in
Visibility 8.0 miles
Clouds Few 700 ft
Mostly Cloudy 1200 ft
Overcast 1900 ft
Dew Point 71 °F
Humidity 96%
Rainfall 0.00 in
Snow Depth Not available.
UV 0 out of 12
Pollen 5.10 out of 12
Air Quality Not available.
Flu Activity Not available.
METAR KDYR 310735Z 16004KT 8SM FEW007 BKN012 OVC019 22/17 A3000 RMK AO1

More Conditions Fewer Conditions

Pressure 30.00 in
Visibility 8.0 miles
Clouds Few 700 ft
Mostly Cloudy 1200 ft
Overcast 1900 ft
Dew Point 71 °F
Humidity 96%
Rainfall 0.00 in
Snow Depth Not available.
UV 0 out of 12
Pollen 5.10 out of 12
Air Quality Not available.
Flu Activity Not available.
METAR KDYR 310735Z 16004KT 8SM FEW007 BKN012 OVC019 22/17 A3000 RMK AO1

More Conditions Fewer Conditions

10-Day Weather Forecast

Almanac

Astronomy

Aug. 31, 2014 Rise Set
Actual Time 6:28 AM CDT 7:27 PM CDT
Civil Twilight 6:02 AM CDT 7:53 PM CDT
Nautical Twilight 5:30 AM CDT 8:24 PM CDT
Astronomical Twilight 4:58 AM CDT 8:57 PM CDT
Moon 12:04 PM CDT 10:53 PM CDT
Length of Visible Light 13h 51m
Length of Day
12h 58m
Tomorrow will be 2m 13s shorter.
Waxing Crescent, 28% of the Moon is Illuminated
Today
Waxing Crescent
Sep 2
First Quarter
Sep 8
Full
Sep 15
Last Quarter
Sep 24
New

Today's Extremes

State Highs State Lows

Community

WunderPhotos

Upload Photos

1,748,809 photos uploaded!

Nearby

Snow Depth

Station Depth Elevation
No new snow has been reported.

Earthquake Activity

City Distance Mag. Time & Date
No recent earthquake activity has been reported nearby.
Minimum magnitude displayed is 2.5.

Coastal Water Temperatures

Place Temperature
No Stations Reporting

Nearby Weather Stations